Time;durP1;ratioP1;P1;durP2;ratioP2;P2;SDS_P1;SDS_P2;PMS_P1;PMS_P2;Temp;Humidity;BMP_temperature;BMP_pressure;BME280_temperature;BME280_humidity;BME280_pressure;Samples;Min_cycle;Max_cycle;Signal;HPM_P1;HPM_P2
2022/09/16 00:01:25;;;;;;;0.00;0.00;;;20.10;73.10;;;;;;4191536;28;20056;-61
2022/09/16 00:04:06;;;;;;;0.00;0.00;;;20.10;73.10;;;;;;4158576;28;20054;-62
2022/09/16 00:06:48;;;;;;;0.00;0.00;;;20.10;73.10;;;;;;4167429;28;20052;-61
2022/09/16 00:09:28;;;;;;;0.00;0.00;;;20.00;73.20;;;;;;4175382;28;20427;-61
2022/09/16 00:12:10;;;;;;;0.03;0.03;;;20.00;73.30;;;;;;4143054;28;20131;-61
2022/09/16 00:14:52;;;;;;;0.00;0.00;;;20.00;73.30;;;;;;4158595;28;20184;-61
2022/09/16 00:17:33;;;;;;;0.00;0.00;;;20.10;73.50;;;;;;4162328;28;20044;-62
2022/09/16 00:20:14;;;;;;;0.00;0.00;;;20.00;73.40;;;;;;4163467;28;20102;-61
2022/09/16 00:22:57;;;;;;;0.00;0.00;;;20.00;73.50;;;;;;4178331;28;20137;-62
2022/09/16 00:25:37;;;;;;;0.00;0.00;;;20.00;73.50;;;;;;4178011;28;20170;-62
2022/09/16 00:28:20;;;;;;;0.00;0.00;;;20.00;73.50;;;;;;4177375;28;20048;-62
2022/09/16 00:31:02;;;;;;;0.00;0.00;;;20.00;73.60;;;;;;4178288;28;20513;-62
2022/09/16 00:33:43;;;;;;;0.00;0.00;;;20.00;73.50;;;;;;4167223;28;20555;-69
2022/09/16 00:36:24;;;;;;;0.00;0.00;;;19.90;73.50;;;;;;4166894;28;20130;-61
2022/09/16 00:39:06;;;;;;;0.03;0.03;;;20.00;73.50;;;;;;4177005;28;20431;-62
2022/09/16 00:41:47;;;;;;;0.00;0.00;;;20.00;73.50;;;;;;4178135;28;20052;-61
2022/09/16 00:44:55;;;;;;;0.00;0.00;;;20.00;73.60;;;;;;4178359;28;20052;-61
2022/09/16 00:47:41;;;;;;;0.00;0.00;;;19.90;73.60;;;;;;4161611;28;20075;-61
2022/09/16 00:50:28;;;;;;;0.00;0.00;;;19.90;73.70;;;;;;4161776;28;20388;-61
2022/09/16 00:53:15;;;;;;;0.17;0.17;;;19.90;73.70;;;;;;4161634;28;20072;-61
2022/09/16 00:56:03;;;;;;;0.00;0.00;;;19.90;73.70;;;;;;4160415;28;20068;-62
2022/09/16 00:58:47;;;;;;;0.00;0.00;;;19.90;73.70;;;;;;4163344;28;20056;-61
2022/09/16 01:01:28;;;;;;;0.00;0.00;;;19.90;73.80;;;;;;4177805;28;20492;-61
2022/09/16 01:04:14;;;;;;;0.00;0.00;;;19.90;73.90;;;;;;4178056;28;20052;-61
2022/09/16 01:06:56;;;;;;;0.20;0.20;;;19.90;73.80;;;;;;4176394;28;20047;-61
2022/09/16 01:09:39;;;;;;;0.10;0.10;;;19.90;73.90;;;;;;4188299;28;20047;-62
2022/09/16 01:12:21;;;;;;;0.00;0.00;;;19.90;73.80;;;;;;4194028;28;20055;-61
2022/09/16 01:15:05;;;;;;;0.00;0.00;;;19.90;73.90;;;;;;4194067;28;20395;-61
2022/09/16 01:18:06;;;;;;;0.00;0.00;;;19.90;73.80;;;;;;4184944;28;20064;-61
2022/09/16 01:21:16;;;;;;;0.00;0.00;;;19.90;73.80;;;;;;4177440;28;20056;-61
2022/09/16 01:24:30;;;;;;;0.03;0.03;;;19.80;73.80;;;;;;4177634;28;20052;-62
2022/09/16 01:27:43;;;;;;;0.00;0.00;;;19.90;73.90;;;;;;4180420;28;20174;-62
2022/09/16 01:30:49;;;;;;;0.00;0.00;;;19.80;74.70;;;;;;4194156;28;20051;-61
2022/09/16 01:33:40;;;;;;;0.00;0.00;;;19.80;73.80;;;;;;4193882;28;20059;-62
2022/09/16 01:36:30;;;;;;;0.00;0.00;;;19.80;73.70;;;;;;4187662;28;20090;-61
2022/09/16 01:39:27;;;;;;;0.00;0.00;;;19.80;74.00;;;;;;4176520;28;20110;-65
2022/09/16 01:42:21;;;;;;;0.00;0.00;;;19.80;74.00;;;;;;4177391;28;20294;-65
2022/09/16 01:45:08;;;;;;;0.00;0.00;;;19.80;74.00;;;;;;4176405;28;20052;-65
2022/09/16 01:47:57;;;;;;;0.00;0.00;;;19.80;74.00;;;;;;4176140;28;20048;-65
2022/09/16 01:50:43;;;;;;;1.65;1.55;;;19.80;74.00;;;;;;4177034;28;20127;-65
2022/09/16 01:53:32;;;;;;;0.00;0.00;;;19.80;74.00;;;;;;4160862;28;20079;-65
2022/09/16 01:56:20;;;;;;;0.00;0.00;;;19.80;74.00;;;;;;4160904;28;20397;-66
2022/09/16 01:59:05;;;;;;;0.00;0.00;;;19.80;74.10;;;;;;4160705;28;20111;-65
2022/09/16 02:01:49;;;;;;;0.00;0.00;;;19.80;74.00;;;;;;4160790;28;20083;-65
2022/09/16 02:04:36;;;;;;;0.00;0.00;;;19.80;74.00;;;;;;4180493;28;20068;-65
2022/09/16 02:07:21;;;;;;;0.00;0.00;;;19.80;74.10;;;;;;4188590;28;20056;-64
2022/09/16 02:10:08;;;;;;;0.00;0.00;;;19.80;74.00;;;;;;4193176;28;20052;-64
2022/09/16 02:12:50;;;;;;;0.00;0.00;;;19.70;74.00;;;;;;4193503;28;20043;-64
2022/09/16 02:15:34;;;;;;;0.00;0.00;;;19.70;74.80;;;;;;4193199;28;20148;-66
2022/09/16 02:18:19;;;;;;;0.00;0.00;;;19.70;74.00;;;;;;4160246;28;20053;-65
2022/09/16 02:21:05;;;;;;;0.00;0.00;;;19.70;73.90;;;;;;4159944;28;20052;-65
2022/09/16 02:23:50;;;;;;;0.00;0.00;;;19.70;73.90;;;;;;4159038;28;20057;-64
2022/09/16 02:26:36;;;;;;;0.00;0.00;;;19.70;73.90;;;;;;4159896;28;20131;-65
2022/09/16 02:29:22;;;;;;;0.00;0.00;;;19.70;74.00;;;;;;4160194;28;20400;-65
2022/09/16 02:32:08;;;;;;;3.83;0.80;;;19.70;74.00;;;;;;4160256;28;20052;-65
2022/09/16 02:34:53;;;;;;;0.00;0.00;;;19.70;74.00;;;;;;4173739;28;20051;-65
2022/09/16 02:37:41;;;;;;;0.00;0.00;;;19.70;73.90;;;;;;4177646;28;20595;-64
2022/09/16 02:40:25;;;;;;;0.00;0.00;;;19.70;74.00;;;;;;4175990;28;20063;-64
2022/09/16 02:43:06;;;;;;;0.00;0.00;;;19.70;74.00;;;;;;4176225;28;20577;-65
2022/09/16 02:45:53;;;;;;;0.00;0.00;;;19.70;74.00;;;;;;4176353;28;20059;-65
2022/09/16 02:48:44;;;;;;;0.00;0.00;;;19.70;74.00;;;;;;4160033;28;20103;-65
2022/09/16 02:51:33;;;;;;;0.00;0.00;;;19.70;74.00;;;;;;4159768;28;20051;-65
2022/09/16 02:54:21;;;;;;;0.30;0.30;;;19.70;74.00;;;;;;4159869;28;20072;-66
2022/09/16 02:57:03;;;;;;;0.00;0.00;;;19.70;74.00;;;;;;4159673;28;20060;-67
2022/09/16 02:59:45;;;;;;;0.00;0.00;;;19.70;74.00;;;;;;4191973;28;20109;-66
2022/09/16 03:02:26;;;;;;;0.00;0.00;;;19.70;74.00;;;;;;4192839;28;20059;-66
2022/09/16 03:05:08;;;;;;;;;;;19.70;73.90;;;;;;4192905;28;20051;-66
2022/09/16 03:07:49;;;;;;;0.00;0.00;;;19.70;73.80;;;;;;4176276;28;19973;-65
2022/09/16 03:10:39;;;;;;;0.85;0.75;;;19.60;73.80;;;;;;4176176;28;20068;-65
2022/09/16 03:13:26;;;;;;;0.00;0.00;;;19.60;73.90;;;;;;4175777;28;20060;-65
2022/09/16 03:16:12;;;;;;;0.00;0.00;;;19.60;73.90;;;;;;4176179;28;20043;-66
2022/09/16 03:19:03;;;;;;;0.00;0.00;;;19.60;73.90;;;;;;4175876;28;20055;-65
2022/09/16 03:21:54;;;;;;;0.00;0.00;;;19.60;73.90;;;;;;4176541;28;20529;-65
2022/09/16 03:24:46;;;;;;;0.00;0.00;;;19.60;73.90;;;;;;4192236;28;20052;-65
2022/09/16 03:27:32;;;;;;;0.00;0.00;;;19.60;73.90;;;;;;4190590;28;20063;-65
2022/09/16 03:30:13;;;;;;;1.00;1.00;;;19.60;73.90;;;;;;4190440;28;20055;-66
2022/09/16 03:32:57;;;;;;;0.00;0.00;;;19.60;74.00;;;;;;4191806;28;20055;-66
2022/09/16 03:35:43;;;;;;;0.00;0.00;;;19.60;74.00;;;;;;4191992;28;20419;-66
2022/09/16 03:38:24;;;;;;;0.00;0.00;;;19.60;74.00;;;;;;4158151;28;20139;-65
2022/09/16 03:41:07;;;;;;;0.00;0.00;;;19.50;74.00;;;;;;4186802;28;20059;-66
2022/09/16 03:43:57;;;;;;;0.00;0.00;;;19.60;74.00;;;;;;4192435;28;20179;-66
2022/09/16 03:46:43;;;;;;;0.00;0.00;;;19.50;74.00;;;;;;4192046;28;20602;-66
2022/09/16 03:49:23;;;;;;;0.00;0.00;;;19.50;74.90;;;;;;4192083;28;20105;-66
2022/09/16 03:52:06;;;;;;;0.00;0.00;;;19.60;74.00;;;;;;4187899;28;20403;-66
2022/09/16 03:54:47;;;;;;;0.13;0.13;;;19.50;74.00;;;;;;4175687;28;20071;-66
2022/09/16 03:57:29;;;;;;;0.00;0.00;;;19.60;74.00;;;;;;4175542;28;20059;-65
2022/09/16 04:00:14;;;;;;;0.00;0.00;;;19.50;73.20;;;;;;4175371;28;20400;-66
2022/09/16 04:02:56;;;;;;;0.00;0.00;;;19.50;74.00;;;;;;4173970;28;20122;-67
2022/09/16 04:05:36;;;;;;;0.00;0.00;;;19.50;74.10;;;;;;4187869;28;20056;-67
2022/09/16 04:08:17;;;;;;;0.00;0.00;;;19.50;74.00;;;;;;4175497;28;20475;-61
2022/09/16 04:10:59;;;;;;;0.00;0.00;;;19.50;74.00;;;;;;4175294;28;20286;-61
2022/09/16 04:13:40;;;;;;;0.00;0.00;;;19.50;74.00;;;;;;4175696;28;20051;-62
2022/09/16 04:16:23;;;;;;;0.00;0.00;;;19.50;74.00;;;;;;4175256;28;20060;-61
2022/09/16 04:19:04;;;;;;;0.00;0.00;;;19.50;74.00;;;;;;4174007;28;20179;-61
2022/09/16 04:21:44;;;;;;;0.00;0.00;;;19.50;74.00;;;;;;4175451;28;20059;-61
2022/09/16 04:24:25;;;;;;;0.00;0.00;;;19.50;74.00;;;;;;4157368;28;20511;-62
2022/09/16 04:27:06;;;;;;;6.53;0.88;;;19.50;74.10;;;;;;4158789;28;20059;-61
2022/09/16 04:29:47;;;;;;;0.00;0.00;;;19.50;74.10;;;;;;4159802;28;20400;-61
2022/09/16 04:32:29;;;;;;;0.10;0.10;;;19.50;74.10;;;;;;4175359;28;20190;-61
2022/09/16 04:35:10;;;;;;;0.00;0.00;;;19.40;74.00;;;;;;4178684;28;20052;-61
2022/09/16 04:37:51;;;;;;;0.00;0.00;;;19.50;74.10;;;;;;4191662;28;20052;-66
2022/09/16 04:40:32;;;;;;;;;;;19.40;74.00;;;;;;4192116;28;20318;-66
2022/09/16 04:43:13;;;;;;;0.00;0.00;;;19.40;74.00;;;;;;4191687;28;19928;-66
2022/09/16 04:45:54;;;;;;;0.00;0.00;;;19.40;74.00;;;;;;4191680;28;20055;-66
2022/09/16 04:48:37;;;;;;;0.00;0.00;;;19.40;74.00;;;;;;4189541;28;20051;-65
2022/09/16 04:51:19;;;;;;;0.00;0.00;;;19.40;74.00;;;;;;4191749;28;20050;-65
2022/09/16 04:54:01;;;;;;;0.00;0.00;;;19.40;74.00;;;;;;4191551;28;20101;-65
2022/09/16 04:56:42;;;;;;;;;;;19.40;74.10;;;;;;4191683;28;20071;-66
2022/09/16 04:59:22;;;;;;;0.00;0.00;;;19.40;74.00;;;;;;4188087;28;19928;-65
2022/09/16 05:02:03;;;;;;;0.00;0.00;;;19.40;74.40;;;;;;4175301;28;20052;-66
2022/09/16 05:04:45;;;;;;;0.00;0.00;;;19.40;74.00;;;;;;4176925;28;20068;-66
2022/09/16 05:07:27;;;;;;;0.00;0.00;;;19.40;74.00;;;;;;4177445;28;20402;-66
2022/09/16 05:10:09;;;;;;;0.00;0.00;;;19.30;73.90;;;;;;4177679;28;20071;-66
2022/09/16 05:12:51;;;;;;;0.00;0.00;;;19.30;74.00;;;;;;4190496;28;20055;-68
2022/09/16 05:15:34;;;;;;;0.00;0.00;;;19.30;74.00;;;;;;4194057;28;20458;-68
2022/09/16 05:18:14;;;;;;;0.00;0.00;;;19.30;74.00;;;;;;4193501;28;20086;-68
2022/09/16 05:20:59;;;;;;;0.00;0.00;;;19.30;74.00;;;;;;4194000;28;20059;-66
2022/09/16 05:23:40;;;;;;;0.00;0.00;;;19.30;74.00;;;;;;4192562;28;20530;-67
2022/09/16 05:26:27;;;;;;;0.00;0.00;;;19.30;74.00;;;;;;4160642;28;20052;-66
2022/09/16 05:29:14;;;;;;;0.00;0.00;;;19.30;74.00;;;;;;4161329;28;20511;-66
2022/09/16 05:31:55;;;;;;;0.00;0.00;;;19.30;74.00;;;;;;4161867;28;20092;-67
2022/09/16 05:34:36;;;;;;;0.00;0.00;;;19.30;74.00;;;;;;4194022;28;20054;-65
2022/09/16 05:37:18;;;;;;;0.00;0.00;;;19.30;74.00;;;;;;4181398;28;20584;-67
2022/09/16 05:39:59;;;;;;;0.08;0.08;;;19.30;74.90;;;;;;4177475;28;20060;-66
2022/09/16 05:42:41;;;;;;;0.00;0.00;;;19.30;74.00;;;;;;4177695;28;20056;-66
2022/09/16 05:45:22;;;;;;;0.00;0.00;;;19.20;74.10;;;;;;4177403;28;20048;-67
2022/09/16 05:48:06;;;;;;;0.00;0.00;;;19.30;74.10;;;;;;4177185;28;20051;-65
2022/09/16 05:50:52;;;;;;;0.00;0.00;;;19.30;74.00;;;;;;4177446;28;20060;-65
2022/09/16 05:53:35;;;;;;;1.67;1.55;;;19.30;73.90;;;;;;4177333;28;20191;-66
2022/09/16 05:56:18;;;;;;;0.10;0.10;;;19.30;74.20;;;;;;4160051;28;20455;-65
2022/09/16 05:59:00;;;;;;;0.00;0.00;;;19.30;74.40;;;;;;4160444;28;20052;-65
2022/09/16 06:01:41;;;;;;;0.00;0.00;;;19.30;74.20;;;;;;4160661;28;20495;-64
2022/09/16 06:04:22;;;;;;;;;;;19.30;74.00;;;;;;4159955;28;20448;-65
2022/09/16 06:07:04;;;;;;;0.00;0.00;;;19.30;73.90;;;;;;4169685;28;20063;-65
2022/09/16 06:09:46;;;;;;;1.45;1.17;;;19.30;73.70;;;;;;4176753;28;20055;-64
2022/09/16 06:12:27;;;;;;;0.00;0.00;;;19.30;73.50;;;;;;4177826;28;20067;-65
2022/09/16 06:15:09;;;;;;;0.00;0.00;;;19.30;73.40;;;;;;4192930;28;20051;-64
2022/09/16 06:17:50;;;;;;;1.85;1.75;;;19.30;74.20;;;;;;4193089;28;20060;-65
2022/09/16 06:20:31;;;;;;;0.75;0.75;;;19.30;73.10;;;;;;4193271;28;20407;-64
2022/09/16 06:23:11;;;;;;;0.00;0.00;;;19.30;73.10;;;;;;4193328;28;20129;-65
2022/09/16 06:26:01;;;;;;;0.00;0.00;;;19.30;73.00;;;;;;4192894;28;20186;-64
2022/09/16 06:28:42;;;;;;;0.45;0.45;;;19.20;72.90;;;;;;4192159;28;20129;-64
2022/09/16 06:31:25;;;;;;;0.00;0.00;;;19.20;72.80;;;;;;4191133;28;20097;-65
2022/09/16 06:34:08;;;;;;;0.00;0.00;;;19.20;72.70;;;;;;4173336;28;20060;-65
2022/09/16 06:36:49;;;;;;;0.03;0.03;;;19.20;72.60;;;;;;4170054;28;20068;-64
2022/09/16 06:39:30;;;;;;;2.08;0.90;;;19.20;72.50;;;;;;4176307;28;20096;-64
2022/09/16 06:42:12;;;;;;;0.00;0.00;;;19.20;72.30;;;;;;4169085;28;20122;-64
2022/09/16 06:44:53;;;;;;;0.00;0.00;;;19.20;72.30;;;;;;4176528;28;20059;-64
2022/09/16 06:47:34;;;;;;;0.00;0.00;;;19.20;72.30;;;;;;4165836;28;20039;-65
2022/09/16 06:50:16;;;;;;;0.10;0.10;;;19.20;72.30;;;;;;4176720;28;20048;-65
2022/09/16 06:52:56;;;;;;;0.00;0.00;;;19.20;72.10;;;;;;4175915;28;20072;-65
2022/09/16 06:55:37;;;;;;;0.00;0.00;;;19.20;72.20;;;;;;4176493;28;20063;-66
2022/09/16 06:58:20;;;;;;;0.15;0.15;;;19.20;73.00;;;;;;4176237;28;20067;-66
2022/09/16 07:01:05;;;;;;;3.30;1.55;;;19.20;72.10;;;;;;4175960;28;20048;-66
2022/09/16 07:03:48;;;;;;;0.47;0.45;;;19.20;72.00;;;;;;4170520;28;20059;-61
2022/09/16 07:06:29;;;;;;;0.00;0.00;;;19.20;72.10;;;;;;4176098;28;20107;-61
2022/09/16 07:09:32;;;;;;;0.00;0.00;;;19.20;71.90;;;;;;4159235;28;20416;-62
2022/09/16 07:12:12;;;;;;;0.00;0.00;;;19.10;71.70;;;;;;4169795;28;20407;-61
2022/09/16 07:14:59;;;;;;;0.00;0.00;;;19.20;71.80;;;;;;4176090;28;20067;-61
2022/09/16 07:17:40;;;;;;;0.00;0.00;;;19.20;71.80;;;;;;4159298;28;20162;-61
2022/09/16 07:20:21;;;;;;;0.00;0.00;;;19.30;71.80;;;;;;4159466;28;20053;-61
2022/09/16 07:23:02;;;;;;;0.00;0.00;;;19.30;71.80;;;;;;4159738;28;20048;-60
2022/09/16 07:25:43;;;;;;;0.10;0.10;;;19.30;71.30;;;;;;4186807;28;20055;-62
2022/09/16 07:28:23;;;;;;;0.00;0.00;;;19.30;71.00;;;;;;4192033;28;20047;-61
2022/09/16 07:31:07;;;;;;;0.00;0.00;;;19.40;70.90;;;;;;4192222;28;20060;-61
2022/09/16 07:33:50;;;;;;;0.00;0.00;;;19.30;70.50;;;;;;4192379;28;20086;-61
2022/09/16 07:36:33;;;;;;;0.00;0.00;;;19.30;70.30;;;;;;4182324;28;20211;-61
2022/09/16 07:39:16;;;;;;;0.00;0.00;;;19.30;70.10;;;;;;4158485;28;20049;-62
2022/09/16 07:41:57;;;;;;;0.10;0.10;;;19.30;69.90;;;;;;4174485;28;20059;-61
2022/09/16 07:44:41;;;;;;;1.17;1.17;;;19.30;69.90;;;;;;4175829;28;20059;-61
2022/09/16 07:47:23;;;;;;;0.00;0.00;;;19.30;69.70;;;;;;4191562;28;20090;-60
2022/09/16 07:50:04;;;;;;;0.10;0.10;;;19.30;69.00;;;;;;4191832;28;20522;-60
2022/09/16 07:52:45;;;;;;;0.43;0.43;;;19.30;68.90;;;;;;4187685;28;20225;-60
2022/09/16 07:55:27;;;;;;;0.00;0.00;;;19.30;68.80;;;;;;4175189;28;20183;-60
2022/09/16 07:58:07;;;;;;;1.35;1.27;;;19.20;68.90;;;;;;4175576;28;20055;-60
2022/09/16 08:00:49;;;;;;;0.00;0.00;;;19.20;69.10;;;;;;4175491;28;20048;-60
2022/09/16 08:03:32;;;;;;;0.43;0.43;;;19.20;69.30;;;;;;4176616;28;20294;-61
2022/09/16 08:06:15;;;;;;;0.00;0.00;;;19.20;69.60;;;;;;4175348;28;20064;-61
2022/09/16 08:08:58;;;;;;;0.00;0.00;;;19.20;69.70;;;;;;4175407;28;20101;-61
2022/09/16 08:11:42;;;;;;;0.00;0.00;;;19.30;70.00;;;;;;4166884;28;20202;-60
2022/09/16 08:14:23;;;;;;;0.00;0.00;;;19.30;70.10;;;;;;4157629;28;20151;-60
2022/09/16 08:17:04;;;;;;;0.00;0.00;;;19.30;70.10;;;;;;4157390;28;20610;-61
2022/09/16 08:19:46;;;;;;;1.10;1.00;;;19.40;71.10;;;;;;4158596;28;20052;-60
2022/09/16 08:22:27;;;;;;;0.00;0.00;;;19.40;70.20;;;;;;4159237;28;20092;-60
2022/09/16 08:25:08;;;;;;;0.00;0.00;;;19.50;70.20;;;;;;4191487;28;20509;-60
2022/09/16 08:27:49;;;;;;;;;;;19.50;70.20;;;;;;4191732;28;20064;-60
2022/09/16 08:30:32;;;;;;;0.00;0.00;;;19.50;70.10;;;;;;4191660;28;19927;-60
2022/09/16 08:33:13;;;;;;;0.03;0.03;;;19.60;70.10;;;;;;4185160;28;20122;-61
2022/09/16 08:36:06;;;;;;;0.20;0.20;;;19.60;69.90;;;;;;4173996;28;20051;-60
2022/09/16 08:38:49;;;;;;;0.00;0.00;;;19.60;69.40;;;;;;4177295;28;20515;-60
2022/09/16 08:41:49;;;;;;;0.20;0.20;;;19.70;69.30;;;;;;4178115;28;20408;-61
2022/09/16 08:44:39;;;;;;;0.00;0.00;;;19.70;69.00;;;;;;4161320;28;20052;-61
2022/09/16 08:47:34;;;;;;;1.35;1.08;;;19.70;68.70;;;;;;4161354;28;20056;-61
2022/09/16 08:50:19;;;;;;;1.90;1.80;;;19.80;66.70;;;;;;4160962;28;20550;-61
2022/09/16 08:53:07;;;;;;;0.45;0.45;;;19.80;66.30;;;;;;4170070;28;20066;-61
2022/09/16 08:55:50;;;;;;;4.90;2.53;;;19.80;66.10;;;;;;4193461;28;20174;-62
2022/09/16 08:58:38;;;;;;;0.52;0.52;;;19.80;65.80;;;;;;4194625;28;20125;-61
2022/09/16 09:01:24;;;;;;;0.10;0.10;;;19.90;66.00;;;;;;4190220;28;20052;-61
2022/09/16 09:04:06;;;;;;;0.17;0.17;;;19.90;65.60;;;;;;4160974;28;20055;-61
2022/09/16 09:06:59;;;;;;;0.10;0.10;;;19.90;65.20;;;;;;4165256;28;20064;-61
2022/09/16 09:09:53;;;;;;;0.75;0.75;;;19.80;63.40;;;;;;4177023;28;20186;-62
2022/09/16 09:12:39;;;;;;;0.80;0.80;;;19.80;63.50;;;;;;4175782;28;20056;-59
2022/09/16 09:15:30;;;;;;;0.00;0.00;;;19.80;63.40;;;;;;4176321;28;20088;-60
2022/09/16 09:18:27;;;;;;;0.10;0.10;;;19.80;64.20;;;;;;4176516;28;20052;-64
2022/09/16 09:21:28;;;;;;;0.15;0.15;;;19.80;64.40;;;;;;4160026;28;20064;-60
2022/09/16 09:24:31;;;;;;;0.55;0.55;;;19.90;64.30;;;;;;4167951;28;20051;-60
2022/09/16 09:27:17;;;;;;;4.85;1.67;;;20.00;64.20;;;;;;4174664;28;20063;-60
2022/09/16 09:30:08;;;;;;;0.00;0.00;;;19.90;64.10;;;;;;4186240;28;20918;-59
2022/09/16 09:33:02;;;;;;;0.00;0.00;;;19.90;64.50;;;;;;4168431;28;20182;-61
2022/09/16 09:35:55;;;;;;;1.10;0.73;;;19.90;65.00;;;;;;4174579;28;20125;-59
2022/09/16 09:38:58;;;;;;;0.00;0.00;;;19.90;65.20;;;;;;4154137;28;20570;-60
2022/09/16 09:41:43;;;;;;;0.15;0.15;;;19.90;65.30;;;;;;4178008;28;20068;-61
2022/09/16 09:44:39;;;;;;;0.00;0.00;;;20.00;65.00;;;;;;4176413;28;20052;-60
2022/09/16 09:47:23;;;;;;;0.10;0.10;;;20.00;64.90;;;;;;4161936;28;20507;-60
2022/09/16 09:50:17;;;;;;;0.35;0.35;;;20.00;65.40;;;;;;4168278;28;20071;-60
2022/09/16 09:53:06;;;;;;;0.00;0.00;;;20.00;64.60;;;;;;4185768;28;20161;-61
2022/09/16 09:55:48;;;;;;;0.00;0.00;;;20.00;64.40;;;;;;4176551;28;20047;-61
2022/09/16 09:58:37;;;;;;;0.43;0.43;;;20.00;64.00;;;;;;4180344;28;20056;-61
2022/09/16 10:01:19;;;;;;;0.00;0.00;;;20.00;63.50;;;;;;4161315;28;20057;-65
2022/09/16 10:04:01;;;;;;;0.00;0.00;;;20.00;62.80;;;;;;4149069;28;20507;-65
2022/09/16 10:06:51;;;;;;;0.00;0.00;;;20.00;64.00;;;;;;4155946;28;20060;-61
2022/09/16 10:09:36;;;;;;;0.57;0.57;;;19.90;63.30;;;;;;4158628;28;20056;-61
2022/09/16 10:12:30;;;;;;;0.00;0.00;;;19.90;63.50;;;;;;4164645;28;20210;-62
2022/09/16 10:15:22;;;;;;;0.00;0.00;;;19.90;63.80;;;;;;4140972;28;20057;-61
2022/09/16 10:18:13;;;;;;;0.00;0.00;;;19.80;63.60;;;;;;4166702;27;20099;-60
2022/09/16 10:21:04;;;;;;;0.00;0.00;;;19.80;63.80;;;;;;4172790;28;20077;-60
2022/09/16 10:23:54;;;;;;;0.00;0.00;;;19.80;64.10;;;;;;4160122;28;20088;-60
2022/09/16 10:26:40;;;;;;;0.00;0.00;;;19.80;64.40;;;;;;4160097;28;20176;-60
2022/09/16 10:29:21;;;;;;;0.00;0.00;;;19.90;64.30;;;;;;4162940;28;20061;-59
2022/09/16 10:32:08;;;;;;;0.00;0.00;;;19.90;64.40;;;;;;4176540;28;20044;-60
2022/09/16 10:34:50;;;;;;;0.00;0.00;;;19.90;64.40;;;;;;4175993;28;20619;-60
2022/09/16 10:37:32;;;;;;;0.00;0.00;;;19.90;64.20;;;;;;4176663;28;20129;-59
2022/09/16 10:40:17;;;;;;;0.00;0.00;;;19.90;64.10;;;;;;4176348;28;20067;-59
2022/09/16 10:43:02;;;;;;;0.00;0.00;;;19.90;63.30;;;;;;4176250;28;20056;-60
2022/09/16 10:45:46;;;;;;;0.00;0.00;;;20.00;62.70;;;;;;4176664;28;20070;-60
2022/09/16 10:48:30;;;;;;;0.00;0.00;;;20.00;62.30;;;;;;4188183;28;20047;-59
2022/09/16 10:51:22;;;;;;;0.00;0.00;;;20.00;61.80;;;;;;4190472;28;20425;-60
2022/09/16 10:54:05;;;;;;;0.00;0.00;;;20.00;62.10;;;;;;4186795;28;20138;-59
2022/09/16 10:56:48;;;;;;;0.00;0.00;;;20.00;61.90;;;;;;4175718;28;20078;-60
2022/09/16 10:59:30;;;;;;;0.00;0.00;;;20.00;62.20;;;;;;4176268;28;20126;-60
2022/09/16 11:02:32;;;;;;;0.00;0.00;;;20.10;62.30;;;;;;4176183;28;20498;-60
2022/09/16 11:05:18;;;;;;;0.00;0.00;;;20.10;62.30;;;;;;4159195;28;20126;-60
2022/09/16 11:08:12;;;;;;;16.88;0.93;;;20.10;62.30;;;;;;4162678;28;20051;-60
2022/09/16 11:10:59;;;;;;;0.03;0.03;;;20.10;61.90;;;;;;4175543;28;21814;-61
2022/09/16 11:13:48;;;;;;;0.00;0.00;;;20.10;62.70;;;;;;4157346;28;20095;-60
2022/09/16 11:16:56;;;;;;;0.00;0.00;;;20.10;60.90;;;;;;4159699;28;20087;-61
2022/09/16 11:19:48;;;;;;;0.00;0.00;;;20.10;61.10;;;;;;4156928;28;20204;-60
2022/09/16 11:22:41;;;;;;;0.00;0.00;;;20.10;60.30;;;;;;4157824;28;20499;-61
2022/09/16 11:25:33;;;;;;;0.55;0.55;;;20.10;61.10;;;;;;4170386;28;20154;-60
2022/09/16 11:28:40;;;;;;;0.00;0.00;;;20.10;61.80;;;;;;4157988;28;20103;-60
2022/09/16 11:31:34;;;;;;;0.00;0.00;;;20.00;62.30;;;;;;4141140;28;20048;-60
2022/09/16 11:34:32;;;;;;;0.00;0.00;;;20.00;62.90;;;;;;4140322;28;20129;-61
2022/09/16 11:37:22;;;;;;;0.10;0.10;;;20.00;63.30;;;;;;4144258;28;20080;-61
2022/09/16 11:40:15;;;;;;;0.00;0.00;;;20.00;63.50;;;;;;4158743;28;20060;-61
2022/09/16 11:43:09;;;;;;;0.00;0.00;;;20.00;63.80;;;;;;4156447;28;20380;-61
2022/09/16 11:45:58;;;;;;;0.00;0.00;;;20.00;64.00;;;;;;4154388;28;20098;-60
2022/09/16 11:48:50;;;;;;;3.33;2.55;;;20.00;64.00;;;;;;4168807;28;20083;-60
2022/09/16 11:51:44;;;;;;;0.13;0.13;;;20.00;64.00;;;;;;4158478;28;20061;-61
2022/09/16 11:54:41;;;;;;;0.00;0.00;;;20.00;63.80;;;;;;4156955;28;20498;-60
2022/09/16 11:57:27;;;;;;;0.25;0.25;;;20.00;63.60;;;;;;4159090;28;20088;-60
2022/09/16 12:00:15;;;;;;;0.00;0.00;;;20.00;62.80;;;;;;4157864;28;20476;-60
2022/09/16 12:03:01;;;;;;;0.17;0.17;;;20.10;62.80;;;;;;4159628;28;20068;-60
2022/09/16 12:05:48;;;;;;;2.17;1.27;;;20.10;62.70;;;;;;4157187;28;20064;-60
2022/09/16 12:08:35;;;;;;;0.00;0.00;;;20.00;62.30;;;;;;4157252;28;20056;-61
2022/09/16 12:11:21;;;;;;;0.68;0.38;;;20.10;61.80;;;;;;4158284;28;20056;-61
2022/09/16 12:14:13;;;;;;;0.03;0.03;;;20.10;62.50;;;;;;4160350;28;20056;-61
2022/09/16 12:16:59;;;;;;;0.00;0.00;;;20.10;64.00;;;;;;4176222;28;20391;-60
2022/09/16 12:19:46;;;;;;;0.13;0.13;;;20.00;64.40;;;;;;4161872;28;20099;-60
2022/09/16 12:22:31;;;;;;;0.00;0.00;;;20.00;65.30;;;;;;4160640;28;20072;-61
2022/09/16 12:25:17;;;;;;;0.20;0.20;;;20.00;64.90;;;;;;4161368;28;20060;-61
2022/09/16 12:28:04;;;;;;;0.52;0.52;;;20.00;64.60;;;;;;4175128;28;20079;-61
2022/09/16 12:30:49;;;;;;;0.00;0.00;;;20.00;64.80;;;;;;4160019;28;20057;-61
2022/09/16 12:33:36;;;;;;;0.00;0.00;;;20.00;64.70;;;;;;4160826;28;20069;-61
2022/09/16 12:36:24;;;;;;;0.38;0.38;;;20.00;64.60;;;;;;4160540;28;20090;-61
2022/09/16 12:39:04;;;;;;;7.70;1.05;;;20.00;63.50;;;;;;4167350;28;20126;-61
2022/09/16 12:42:05;;;;;;;0.00;0.00;;;20.00;62.90;;;;;;4167761;28;20488;-61
2022/09/16 12:45:03;;;;;;;0.00;0.00;;;20.00;61.70;;;;;;4166238;28;20064;-61
2022/09/16 12:48:12;;;;;;;0.00;0.00;;;20.00;62.20;;;;;;4175142;28;20121;-61
2022/09/16 12:51:08;;;;;;;0.00;0.00;;;20.00;62.50;;;;;;4149119;28;20118;-61
2022/09/16 12:54:24;;;;;;;1.20;1.10;;;20.00;61.50;;;;;;4160141;28;20202;-60
2022/09/16 12:57:19;;;;;;;0.00;0.00;;;19.90;61.80;;;;;;4153903;28;20184;-61
2022/09/16 13:00:19;;;;;;;0.00;0.00;;;19.90;62.90;;;;;;4174962;28;20091;-61
2022/09/16 13:03:06;;;;;;;0.00;0.00;;;19.90;63.10;;;;;;4156946;28;20078;-61
2022/09/16 13:05:50;;;;;;;0.00;0.00;;;19.90;63.30;;;;;;4145240;28;20520;-61
2022/09/16 13:08:34;;;;;;;0.00;0.00;;;19.90;63.20;;;;;;4159945;28;20496;-61
2022/09/16 13:11:21;;;;;;;0.00;0.00;;;19.90;63.10;;;;;;4159547;28;20056;-61
2022/09/16 13:14:24;;;;;;;0.00;0.00;;;19.90;62.10;;;;;;4172500;28;20056;-61
2022/09/16 13:17:05;;;;;;;0.00;0.00;;;19.90;63.00;;;;;;4168930;28;20110;-61
2022/09/16 13:19:51;;;;;;;0.00;0.00;;;19.90;62.50;;;;;;4167441;28;20059;-61
2022/09/16 13:22:38;;;;;;;0.00;0.00;;;20.00;62.50;;;;;;4165007;28;21121;-61
2022/09/16 13:25:25;;;;;;;0.00;0.00;;;19.90;63.10;;;;;;4174364;28;20056;-61
2022/09/16 13:28:25;;;;;;;0.43;0.43;;;19.90;63.50;;;;;;4158809;28;20072;-61
2022/09/16 13:31:29;;;;;;;0.00;0.00;;;20.00;63.80;;;;;;4174403;28;20412;-61
2022/09/16 13:34:16;;;;;;;0.00;0.00;;;19.90;64.00;;;;;;4143770;28;20488;-61
2022/09/16 13:36:57;;;;;;;0.38;0.38;;;19.90;64.30;;;;;;4147303;28;20397;-61
2022/09/16 13:39:38;;;;;;;0.00;0.00;;;19.90;64.10;;;;;;4152975;28;20130;-61
2022/09/16 13:42:23;;;;;;;0.20;0.20;;;19.90;64.30;;;;;;4147400;28;20401;-61
2022/09/16 13:45:25;;;;;;;0.00;0.00;;;19.90;64.10;;;;;;4144708;28;20397;-61
2022/09/16 13:48:13;;;;;;;0.00;0.00;;;19.90;64.50;;;;;;4143516;28;20401;-61
2022/09/16 13:50:58;;;;;;;0.00;0.00;;;19.90;64.60;;;;;;4174686;28;20060;-61
2022/09/16 13:53:45;;;;;;;0.00;0.00;;;19.90;64.80;;;;;;4173705;28;20059;-61
2022/09/16 13:56:43;;;;;;;0.00;0.00;;;19.90;64.70;;;;;;4193017;28;20094;-61
2022/09/16 13:59:42;;;;;;;0.10;0.10;;;19.90;64.60;;;;;;4176528;28;20560;-61
2022/09/16 14:02:36;;;;;;;0.13;0.13;;;19.90;64.90;;;;;;4143340;28;20535;-60
2022/09/16 14:05:29;;;;;;;0.00;0.00;;;19.80;64.90;;;;;;4160466;28;20123;-62
2022/09/16 14:08:17;;;;;;;0.28;0.25;;;19.80;65.00;;;;;;4183928;28;20118;-61
2022/09/16 14:11:05;;;;;;;0.00;0.00;;;19.80;65.30;;;;;;4164147;28;20554;-62
2022/09/16 14:13:50;;;;;;;0.00;0.00;;;19.80;65.20;;;;;;4159991;28;20207;-60
2022/09/16 14:16:35;;;;;;;0.00;0.00;;;19.80;65.20;;;;;;4143555;28;20053;-60
2022/09/16 14:19:24;;;;;;;0.00;0.00;;;19.80;65.40;;;;;;4146875;28;20100;-60
2022/09/16 14:22:06;;;;;;;0.00;0.00;;;19.90;65.60;;;;;;4176399;28;20158;-62
2022/09/16 14:24:47;;;;;;;5.15;1.95;;;19.90;65.70;;;;;;4175640;28;20078;-62
2022/09/16 14:27:35;;;;;;;0.00;0.00;;;19.90;65.70;;;;;;4174569;28;20055;-62